Aviation Digital Data Service (ADDS)

Output produced by METARs form (1233 UTC 20 July 2017)
found at http://www.aviationweather.gov/adds/metars/
 
TAF LRTZ 201100Z 2012/2112 05012KT 9999 SKC 
     TEMPO 2012/2016 FEW040 
     BECMG 2018/2020 VRB03KT
       
LRCK 201200Z 10013KT CAVOK 32/09 Q1014 NOSIG
TAF LRCK 201100Z 2012/2112 11012KT CAVOK 
     TEMPO 2012/2015 FEW050CB 
     BECMG 2017/2019 VRB04KT 
     BECMG 2109/2111 11012KT
       
LRTC 201200Z VRB03KT CAVOK 31/04 Q1013
TAF LRTC 201100Z 2012/2021 VRB04KT CAVOK
       
TAF LRBO 201100Z 2012/2112 20008KT 9999 SCT040 
     PROB30 
     TEMPO 2014/2016 FEW030CB 
     BECMG 2017/2019 32004KT SKC
       
LRBC 201200Z 14008KT 110V180 9999 FEW055 31/16 Q1014
TAF LRBC 201100Z 2012/2021 15008KT CAVOK
       
LRIA 201200Z 21007KT 170V240 CAVOK 31/09 Q1013
TAF LRIA 201100Z 2012/2021 17006KT CAVOK
       
LRSV 201200Z 21008KT 9999 FEW040 28/12 Q1014
TAF LRSV 201100Z 2012/2021 15006KT CAVOK
       
LROP 201200Z VRB03KT CAVOK 29/16 Q1014 NOSIG
TAF LROP 201100Z 2012/2112 VRB04KT CAVOK 
     TEMPO 2013/2017 SCT045CB
       
LRBS 201200Z VRB01KT CAVOK 31/12 Q1014 NOSIG
TAF LRBS 201100Z 2012/2112 VRB04KT CAVOK 
     TEMPO 2013/2017 SCT045CB
       
LRCV 201200Z VRB05KT CAVOK 31/11 Q1014
TAF LRCV 201100Z 2012/2021 20006KT CAVOK
       
LRSB 201200Z VRB02KT 9999 SCT056 28/11 Q1015
TAF LRSB 201100Z 2012/2112 VRB04KT CAVOK 
     TEMPO 2012/2018 SCT045CB 
     PROB30 
     TEMPO 2013/2018 VRB15G25KT 5000 -TSRA
       
LRAR 201200Z 21010KT 160V240 CAVOK 34/10 Q1011
TAF LRAR 201100Z 2012/2021 23008KT CAVOK 
     BECMG 2017/2019 13010KT
       
LRCL 201200Z 07009KT 030V120 9999 FEW065 31/12 Q1014
TAF LRCL 201100Z 2012/2021 10006KT CAVOK 
     TEMPO 2012/2016 SCT045CB
       
LRTR 201200Z 19010KT CAVOK 35/08 Q1012
TAF LRTR 201100Z 2012/2112 21010KT CAVOK 
     BECMG 2018/2020 11008KT 
     BECMG 2108/2110 18010KT
       
LRTM 201200Z 11004KT 030V150 9999 SCT043 31/14 Q1014
TAF LRTM 201100Z 2012/2021 VRB04KT CAVOK 
     TEMPO 2013/2017 SCT045CB
       
LRBM 201200Z 22005KT 9999 FEW030 31/15 Q1013
TAF LRBM 201100Z 2012/2021 VRB04KT 9999 SCT035
       
LRSM 201200Z VRB03KT CAVOK 31/13 Q1013
TAF LRSM 201100Z 2012/2021 VRB04KT CAVOK
       
LROD 201200Z 24006KT 200V290 CAVOK 34/08 Q1012
TAF LROD 201100Z 2012/2021 21008KT CAVOK
       
LRCT 201200Z 06004KT 9999 SCT050 30/13 Q1014 BLU BLU
TAF LRCT 201100Z 2012/2112 16005KT 9999 FEW050 
     TEMPO 2013/2017 25010KT FEW040CB BKN100 
     BECMG 2018/2020 VRB03KT SKC